createdAt,value
2022-11-19T00:04:01.468Z,83.08
2022-11-19T00:09:05.658Z,83.20
2022-11-19T00:14:12.666Z,83.11
2022-11-19T00:19:14.922Z,82.93
2022-11-19T00:24:17.066Z,83.27
2022-11-19T00:29:19.159Z,82.92
2022-11-19T00:34:22.964Z,82.82
2022-11-19T00:39:24.815Z,82.87
2022-11-19T00:44:26.694Z,82.98
2022-11-19T00:49:28.556Z,83.24
2022-11-19T00:54:30.724Z,83.14
2022-11-19T00:59:32.621Z,83.24
2022-11-19T01:04:34.555Z,83.16
2022-11-19T01:09:36.465Z,83.26
2022-11-19T01:14:38.449Z,83.51
2022-11-19T01:19:40.367Z,83.24
2022-11-19T01:24:42.185Z,83.42
2022-11-19T01:29:44.112Z,83.44
2022-11-19T01:34:46.032Z,83.28
2022-11-19T01:39:48.013Z,83.30
2022-11-19T01:45:02.701Z,83.32
2022-11-19T01:50:05.750Z,83.09
2022-11-19T01:55:08.686Z,83.11
2022-11-19T02:00:11.644Z,83.23
2022-11-19T02:05:13.958Z,82.93
2022-11-19T02:10:16.131Z,82.99
2022-11-19T02:15:23.244Z,82.73
2022-11-19T02:20:34.203Z,82.80
2022-11-19T02:25:38.989Z,82.87
2022-11-19T02:30:46.710Z,82.68
2022-11-19T02:35:58.854Z,83.08
2022-11-19T02:41:32.289Z,83.34
2022-11-19T02:46:34.363Z,83.62
2022-11-19T02:51:36.398Z,84.14
2022-11-19T02:56:52.056Z,84.21
2022-11-19T03:02:12.620Z,84.47
2022-11-19T03:07:18.291Z,84.48
2022-11-19T03:12:35.545Z,84.74
2022-11-19T03:18:09.685Z,84.81
2022-11-19T03:23:27.171Z,85.21
2022-11-19T03:28:34.233Z,85.25
2022-11-19T03:33:47.487Z,85.51
2022-11-19T03:39:04.295Z,85.61
2022-11-19T03:44:18.863Z,85.62
2022-11-19T03:49:31.708Z,85.61
2022-11-19T03:54:34.268Z,85.47
2022-11-19T03:59:36.234Z,85.76
2022-11-19T04:04:39.031Z,86.25
2022-11-19T04:09:42.028Z,86.16
2022-11-19T04:14:43.932Z,86.15
2022-11-19T04:19:46.730Z,86.67
2022-11-19T04:24:48.626Z,86.35
2022-11-19T04:29:50.501Z,86.72
2022-11-19T04:34:52.361Z,86.81
2022-11-19T04:39:54.160Z,87.05
2022-11-19T04:44:56.004Z,87.21
2022-11-19T04:49:57.828Z,87.30
2022-11-19T04:54:59.640Z,87.52
2022-11-19T05:00:01.570Z,87.55
2022-11-19T05:05:03.598Z,87.38
2022-11-19T05:10:05.902Z,87.60
2022-11-19T05:15:08.713Z,87.89
2022-11-19T05:20:10.848Z,87.77
2022-11-19T05:25:12.765Z,87.72
2022-11-19T05:30:15.227Z,88.08
2022-11-19T05:35:17.214Z,88.04
2022-11-19T05:40:19.078Z,87.97
2022-11-19T05:45:21.197Z,87.93
2022-11-19T05:50:23.145Z,87.81
2022-11-19T05:55:25.128Z,88.23
2022-11-19T06:00:27.027Z,88.09
2022-11-19T06:05:28.821Z,88.35
2022-11-19T06:10:30.625Z,88.44
2022-11-19T06:15:32.454Z,88.59
2022-11-19T06:20:34.319Z,88.59
2022-11-19T06:25:36.258Z,88.68
2022-11-19T06:30:38.281Z,88.71
2022-11-19T06:35:40.134Z,88.67
2022-11-19T06:40:42.822Z,88.56
2022-11-19T06:45:44.726Z,88.98
2022-11-19T06:50:47.221Z,88.92
2022-11-19T06:55:49.111Z,89.02
2022-11-19T07:00:51.150Z,88.88
2022-11-19T07:05:59.211Z,88.82
2022-11-19T07:11:22.392Z,88.72
2022-11-19T07:16:33.253Z,88.83
2022-11-19T07:21:36.283Z,88.96
2022-11-19T07:26:38.541Z,88.84
2022-11-19T07:31:40.581Z,88.73
2022-11-19T07:36:42.869Z,89.05
2022-11-19T07:42:03.638Z,88.76
2022-11-19T07:47:08.363Z,88.94
2022-11-19T07:52:10.221Z,88.82
2022-11-19T07:57:12.277Z,89.03
2022-11-19T08:02:15.179Z,88.79
2022-11-19T08:07:17.311Z,88.97
2022-11-19T08:12:19.418Z,88.93
2022-11-19T08:17:40.022Z,88.52
2022-11-19T08:22:42.932Z,88.66
2022-11-19T08:27:44.802Z,88.68
2022-11-19T08:32:46.812Z,88.44
2022-11-19T08:37:48.829Z,88.39
2022-11-19T08:42:59.945Z,88.32
2022-11-19T08:48:05.572Z,88.10
2022-11-19T08:53:07.518Z,87.71
2022-11-19T08:58:11.435Z,87.48
2022-11-19T09:03:13.266Z,86.95
2022-11-19T09:08:15.131Z,87.12
2022-11-19T09:13:17.024Z,86.73
2022-11-19T09:18:18.932Z,86.18
2022-11-19T09:23:21.559Z,86.49
2022-11-19T09:28:23.426Z,86.02
2022-11-19T09:33:26.124Z,85.20
2022-11-19T09:38:28.498Z,84.95
2022-11-19T09:43:49.213Z,84.51
2022-11-19T09:48:55.033Z,84.23
2022-11-19T09:54:05.981Z,83.89
2022-11-19T09:59:21.733Z,83.67
2022-11-19T10:04:26.992Z,82.47
2022-11-19T10:09:31.991Z,80.65
2022-11-19T10:14:43.184Z,79.92
2022-11-19T10:20:10.291Z,80.45
2022-11-19T10:25:22.952Z,80.28
2022-11-19T10:30:29.025Z,79.28
2022-11-19T10:35:39.039Z,79.10
2022-11-19T10:40:44.985Z,78.53
2022-11-19T10:45:46.793Z,77.05
2022-11-19T10:50:49.641Z,74.65
2022-11-19T10:55:57.773Z,73.06
2022-11-19T11:01:02.658Z,72.09
2022-11-19T11:06:07.912Z,70.91
2022-11-19T11:11:11.070Z,70.24
2022-11-19T11:16:20.169Z,69.70
2022-11-19T11:21:30.606Z,70.17
2022-11-19T11:26:34.815Z,70.45
2022-11-19T11:31:47.348Z,69.78
2022-11-19T11:36:49.230Z,67.25
2022-11-19T11:42:05.410Z,65.17
2022-11-19T11:47:15.165Z,65.63
2022-11-19T11:52:33.695Z,62.97
2022-11-19T11:57:49.992Z,62.45
2022-11-19T12:03:05.945Z,61.22
2022-11-19T12:08:27.107Z,64.28
2022-11-19T12:13:43.968Z,64.25
2022-11-19T12:18:45.790Z,61.31
2022-11-19T12:24:15.910Z,60.93
2022-11-19T12:29:36.673Z,61.76
2022-11-19T12:34:57.147Z,62.16
2022-11-19T12:40:20.602Z,60.27
2022-11-19T12:45:30.628Z,62.77
2022-11-19T12:50:50.937Z,60.64
2022-11-19T12:56:15.691Z,59.76
2022-11-19T13:01:27.494Z,60.93
2022-11-19T13:06:41.721Z,61.72
2022-11-19T13:11:50.024Z,64.17
2022-11-19T13:16:54.598Z,63.78
2022-11-19T13:22:02.662Z,62.19
2022-11-19T13:27:09.667Z,62.86
2022-11-19T13:32:48.023Z,63.55
2022-11-19T13:38:02.918Z,65.27
2022-11-19T13:43:32.533Z,66.28
2022-11-19T13:48:41.689Z,66.49
2022-11-19T13:53:46.323Z,67.16
2022-11-19T13:58:51.757Z,67.78
2022-11-19T14:04:28.038Z,68.45
2022-11-19T14:09:48.739Z,68.95
2022-11-19T14:15:40.392Z,69.42
2022-11-19T14:21:02.978Z,70.02
2022-11-19T14:26:22.543Z,70.39
2022-11-19T14:31:24.543Z,70.72
2022-11-19T14:36:29.602Z,70.95
2022-11-19T14:41:33.893Z,71.54
2022-11-19T14:46:45.796Z,71.98
2022-11-19T14:51:53.656Z,72.14
2022-11-19T14:57:13.683Z,72.72
2022-11-19T15:02:34.601Z,72.97
2022-11-19T15:07:39.951Z,73.02
2022-11-19T15:12:44.913Z,73.28
2022-11-19T15:17:50.876Z,73.72
2022-11-19T15:23:06.717Z,73.92
2022-11-19T15:28:18.846Z,74.42
2022-11-19T15:33:47.159Z,74.55
2022-11-19T15:38:57.616Z,75.06
2022-11-19T15:44:04.508Z,75.13
2022-11-19T15:49:26.949Z,75.46
2022-11-19T15:54:34.704Z,75.66
2022-11-19T15:59:38.406Z,75.76
2022-11-19T16:04:41.069Z,76.05
2022-11-19T16:09:42.963Z,75.99
2022-11-19T16:15:12.309Z,76.09
2022-11-19T16:20:14.125Z,76.34
2022-11-19T16:25:31.496Z,76.66
2022-11-19T16:30:46.429Z,76.96
2022-11-19T16:35:52.829Z,77.22
2022-11-19T16:41:16.030Z,77.40
2022-11-19T16:46:22.358Z,78.10
2022-11-19T16:51:31.881Z,78.20
2022-11-19T16:56:45.935Z,78.45
2022-11-19T17:01:54.072Z,78.71
2022-11-19T17:06:57.748Z,78.61
2022-11-19T17:12:18.024Z,78.74
2022-11-19T17:17:39.980Z,79.06
2022-11-19T17:22:42.564Z,79.04
2022-11-19T17:27:51.399Z,79.49
2022-11-19T17:32:54.588Z,79.34
2022-11-19T17:37:58.931Z,79.97
2022-11-19T17:43:19.650Z,79.89
2022-11-19T17:48:24.152Z,79.88
2022-11-19T17:53:26.133Z,80.15
2022-11-19T17:58:28.086Z,80.15
2022-11-19T18:03:30.045Z,80.59
2022-11-19T18:08:33.078Z,81.19
2022-11-19T18:13:36.826Z,81.46
2022-11-19T18:18:38.704Z,81.82
2022-11-19T18:23:41.954Z,81.81
2022-11-19T18:28:47.735Z,81.78
2022-11-19T18:33:50.930Z,81.97
2022-11-19T18:38:55.757Z,82.87
2022-11-19T18:44:16.417Z,83.00
2022-11-19T18:49:18.577Z,83.20
2022-11-19T18:54:21.042Z,83.88
2022-11-19T18:59:23.960Z,83.82
2022-11-19T19:04:26.538Z,83.86
2022-11-19T19:09:28.425Z,83.85
2022-11-19T19:14:30.293Z,83.67
2022-11-19T19:19:32.193Z,83.64
2022-11-19T19:24:34.101Z,83.76
2022-11-19T19:29:35.994Z,83.88
2022-11-19T19:34:37.891Z,83.83
2022-11-19T19:39:39.777Z,83.87
2022-11-19T19:44:41.673Z,83.82
2022-11-19T19:49:43.675Z,84.04
2022-11-19T19:54:45.556Z,84.19
2022-11-19T19:59:47.432Z,84.47
2022-11-19T20:04:49.322Z,84.57
2022-11-19T20:09:51.207Z,84.69
2022-11-19T20:14:53.101Z,84.70
2022-11-19T20:19:54.924Z,84.85
2022-11-19T20:24:56.765Z,85.00
2022-11-19T20:30:00.087Z,85.26
2022-11-19T20:35:02.160Z,85.32
2022-11-19T20:40:04.263Z,85.39
2022-11-19T20:45:08.407Z,85.53
2022-11-19T20:50:10.448Z,85.57
2022-11-19T20:55:12.364Z,85.60
2022-11-19T21:00:15.373Z,85.78
2022-11-19T21:05:17.354Z,85.93
2022-11-19T21:10:19.428Z,86.05
2022-11-19T21:15:21.228Z,86.10
2022-11-19T21:20:23.332Z,86.03
2022-11-19T21:25:25.260Z,86.32
2022-11-19T21:30:27.192Z,86.54
2022-11-19T21:35:29.065Z,86.77
2022-11-19T21:40:30.974Z,86.96
2022-11-19T21:45:32.948Z,87.12
2022-11-19T21:50:38.588Z,87.13
2022-11-19T21:55:45.001Z,87.26
2022-11-19T22:00:47.135Z,87.44
2022-11-19T22:05:59.313Z,87.58
2022-11-19T22:11:21.445Z,87.59
2022-11-19T22:16:24.541Z,87.73
2022-11-19T22:21:29.254Z,87.73
2022-11-19T22:26:31.303Z,88.00
2022-11-19T22:31:34.044Z,88.06
2022-11-19T22:36:35.925Z,87.99
2022-11-19T22:41:37.732Z,87.90
2022-11-19T22:46:39.529Z,88.03
2022-11-19T22:51:41.521Z,88.16
2022-11-19T22:56:43.504Z,88.25
2022-11-19T23:01:45.335Z,88.08
2022-11-19T23:06:47.224Z,88.12
2022-11-19T23:12:07.882Z,88.12
2022-11-19T23:17:09.732Z,88.29
2022-11-19T23:22:11.537Z,88.26
2022-11-19T23:27:16.722Z,88.34
2022-11-19T23:32:22.632Z,88.52
2022-11-19T23:37:24.458Z,88.58
2022-11-19T23:42:26.409Z,88.54
2022-11-19T23:47:28.207Z,88.65
2022-11-19T23:52:30.073Z,88.85
2022-11-19T23:57:31.954Z,88.92
